Time;durP1;ratioP1;P1;durP2;ratioP2;P2;SDS_P1;SDS_P2;PMS_P1;PMS_P2;Temp;Humidity;BMP_temperature;BMP_pressure;BME280_temperature;BME280_humidity;BME280_pressure;Samples;Min_cycle;Max_cycle;Signal;HPM_P1;HPM_P2
2022/07/06 00:01:00;;;;;;;;;;;;;;;;;;4990286;28;2277;-73
2022/07/06 00:03:25;;;;;;;;;;;;;;;;;;5007945;28;2041;-73
2022/07/06 00:05:50;;;;;;;;;;;;;;;;;;5003037;28;2648;-73
2022/07/06 00:08:15;;;;;;;;;;;;;;;;;;4999480;28;2175;-72
2022/07/06 00:10:40;;;;;;;;;;;;;;;;;;5002897;28;2876;-72
2022/07/06 00:13:06;;;;;;;;;;;;;;;;;;4998824;28;2554;-72
2022/07/06 00:15:31;;;;;;;;;;;;;;;;;;5004437;28;2337;-72
2022/07/06 00:17:56;;;;;;;;;;;;;;;;;;5002564;28;2783;-72
2022/07/06 00:20:21;;;;;;;;;;;;;;;;;;5007307;28;2426;-72
2022/07/06 00:22:46;;;;;;;;;;;;;;;;;;5001718;28;2789;-73
2022/07/06 00:25:11;;;;;;;;;;;;;;;;;;5001033;28;2334;-72
2022/07/06 00:27:37;;;;;;;;;;;;;;;;;;5004270;28;2303;-73
2022/07/06 00:30:02;;;;;;;;;;;;;;;;;;4998457;28;2367;-72
2022/07/06 00:32:27;;;;;;;;;;;;;;;;;;4998592;28;2491;-72
2022/07/06 00:34:52;;;;;;;;;;;;;;;;;;4999856;28;2264;-73
2022/07/06 00:37:18;;;;;;;;;;;;;;;;;;4998612;28;2217;-73
2022/07/06 00:39:43;;;;;;;;;;;;;;;;;;5004594;28;2358;-72
2022/07/06 00:42:08;;;;;;;;;;;;;;;;;;5002272;28;3109;-72
2022/07/06 00:44:33;;;;;;;;;;;;;;;;;;4997198;28;2315;-73
2022/07/06 00:46:59;;;;;;;;;;;;;;;;;;5002808;28;2952;-72
2022/07/06 00:52:08;;;;;;;;;;;;;;;;;;5000018;28;2409;-73
2022/07/06 00:54:34;;;;;;;;;;;;;;;;;;5004138;28;2007;-72
2022/07/06 00:56:59;;;;;;;;;;;;;;;;;;5000859;28;2184;-72
2022/07/06 00:59:24;;;;;;;;;;;;;;;;;;5002096;28;2171;-72
2022/07/06 01:01:50;;;;;;;;;;;;;;;;;;5003331;28;2257;-72
2022/07/06 01:04:15;;;;;;;;;;;;;;;;;;5009147;28;2205;-72
2022/07/06 01:06:41;;;;;;;;;;;;;;;;;;5000744;28;2364;-72
2022/07/06 01:09:06;;;;;;;;;;;;;;;;;;5002594;28;2128;-72
2022/07/06 01:11:31;;;;;;;;;;;;;;;;;;5003440;28;2433;-72
2022/07/06 01:13:57;;;;;;;;;;;;;;;;;;5000028;28;2453;-72
2022/07/06 01:16:22;;;;;;;;;;;;;;;;;;5000180;28;2551;-72
2022/07/06 01:18:47;;;;;;;;;;;;;;;;;;5002429;28;2177;-72
2022/07/06 01:21:14;;;;;;;;;;;;;;;;;;4999637;28;2279;-72
2022/07/06 01:23:40;;;;;;;;;;;;;;;;;;5002974;28;2305;-72
2022/07/06 01:26:05;;;;;;;;;;;;;;;;;;4995853;28;2492;-72
2022/07/06 01:28:30;;;;;;;;;;;;;;;;;;4999115;28;2329;-72
2022/07/06 01:30:55;;;;;;;;;;;;;;;;;;5003355;28;2463;-72
2022/07/06 01:33:20;;;;;;;;;;;;;;;;;;4998766;28;2800;-72
2022/07/06 01:35:46;;;;;;;;;;;;;;;;;;5000257;28;2444;-72
2022/07/06 01:38:11;;;;;;;;;;;;;;;;;;5002777;28;2857;-72
2022/07/06 01:40:36;;;;;;;;;;;;;;;;;;5003988;28;2340;-72
2022/07/06 01:43:01;;;;;;;;;;;;;;;;;;4999209;28;2296;-72
2022/07/06 01:45:27;;;;;;;;;;;;;;;;;;4999889;28;2146;-72
2022/07/06 01:47:52;;;;;;;;;;;;;;;;;;5001239;28;3069;-72
2022/07/06 01:50:17;;;;;;;;;;;;;;;;;;4984609;28;2477;-72
2022/07/06 01:52:42;;;;;;;;;;;;;;;;;;4999587;28;2396;-72
2022/07/06 01:55:07;;;;;;;;;;;;;;;;;;5003663;28;2890;-72
2022/07/06 01:57:33;;;;;;;;;;;;;;;;;;5003855;28;2394;-72
2022/07/06 01:59:58;;;;;;;;;;;;;;;;;;5005354;28;2767;-72
2022/07/06 02:02:23;;;;;;;;;;;;;;;;;;5000338;28;2303;-72
2022/07/06 02:04:48;;;;;;;;;;;;;;;;;;5003392;28;2700;-72
2022/07/06 02:07:13;;;;;;;;;;;;;;;;;;5003375;28;2792;-72
2022/07/06 02:09:38;;;;;;;;;;;;;;;;;;5005890;28;2247;-72
2022/07/06 02:12:04;;;;;;;;;;;;;;;;;;5006925;28;2487;-72
2022/07/06 02:14:29;;;;;;;;;;;;;;;;;;4992687;28;2815;-72
2022/07/06 02:16:54;;;;;;;;;;;;;;;;;;5006336;28;2907;-72
2022/07/06 02:19:19;;;;;;;;;;;;;;;;;;5005863;28;2123;-72
2022/07/06 02:21:44;;;;;;;;;;;;;;;;;;4997168;28;2187;-72
2022/07/06 02:24:10;;;;;;;;;;;;;;;;;;4997166;28;2560;-72
2022/07/06 02:26:35;;;;;;;;;;;;;;;;;;4999368;28;2380;-72
2022/07/06 02:29:00;;;;;;;;;;;;;;;;;;5003495;28;2180;-72
2022/07/06 02:31:25;;;;;;;;;;;;;;;;;;5001615;28;2305;-72
2022/07/06 02:33:50;;;;;;;;;;;;;;;;;;4998083;28;2277;-72
2022/07/06 02:36:15;;;;;;;;;;;;;;;;;;4994860;28;2924;-72
2022/07/06 02:38:40;;;;;;;;;;;;;;;;;;5003179;28;2186;-72
2022/07/06 02:41:06;;;;;;;;;;;;;;;;;;5003332;28;2224;-72
2022/07/06 02:43:31;;;;;;;;;;;;;;;;;;5001495;28;2020;-72
2022/07/06 02:45:56;;;;;;;;;;;;;;;;;;5005095;28;2389;-72
2022/07/06 02:48:21;;;;;;;;;;;;;;;;;;4997609;28;2270;-72
2022/07/06 02:50:46;;;;;;;;;;;;;;;;;;5002396;28;2824;-72
2022/07/06 02:53:12;;;;;;;;;;;;;;;;;;4996869;28;2795;-72
2022/07/06 02:55:37;;;;;;;;;;;;;;;;;;5004240;28;2111;-72
2022/07/06 02:58:02;;;;;;;;;;;;;;;;;;4998028;28;2595;-72
2022/07/06 03:00:27;;;;;;;;;;;;;;;;;;4999805;28;2247;-72
2022/07/06 03:02:52;;;;;;;;;;;;;;;;;;5003987;28;2082;-72
2022/07/06 03:05:18;;;;;;;;;;;;;;;;;;4989148;28;2257;-72
2022/07/06 03:07:43;;;;;;;;;;;;;;;;;;5000885;28;2189;-72
2022/07/06 03:10:08;;;;;;;;;;;;;;;;;;5003120;28;2337;-72
2022/07/06 03:12:33;;;;;;;;;;;;;;;;;;5003289;28;2221;-72
2022/07/06 03:14:58;;;;;;;;;;;;;;;;;;5000046;28;2254;-72
2022/07/06 03:17:23;;;;;;;;;;;;;;;;;;5005466;28;2282;-72
2022/07/06 03:19:49;;;;;;;;;;;;;;;;;;5005841;28;2410;-72
2022/07/06 03:22:14;;;;;;;;;;;;;;;;;;5000758;28;2389;-72
2022/07/06 03:24:39;;;;;;;;;;;;;;;;;;5003889;28;2779;-72
2022/07/06 03:27:04;;;;;;;;;;;;;;;;;;5003797;28;2512;-73
2022/07/06 03:29:29;;;;;;;;;;;;;;;;;;5001324;28;2881;-72
2022/07/06 03:31:54;;;;;;;;;;;;;;;;;;5005511;28;2221;-72
2022/07/06 03:34:20;;;;;;;;;;;;;;;;;;5004074;28;2288;-72
2022/07/06 03:36:45;;;;;;;;;;;;;;;;;;5000624;28;2843;-72
2022/07/06 03:39:10;;;;;;;;;;;;;;;;;;5006711;28;2346;-72
2022/07/06 03:41:35;;;;;;;;;;;;;;;;;;5003255;28;2085;-72
2022/07/06 03:44:00;;;;;;;;;;;;;;;;;;4999658;28;2872;-72
2022/07/06 03:46:25;;;;;;;;;;;;;;;;;;5001970;28;2235;-72
2022/07/06 03:48:51;;;;;;;;;;;;;;;;;;5005539;28;1997;-72
2022/07/06 03:51:16;;;;;;;;;;;;;;;;;;5003378;28;2825;-72
2022/07/06 03:53:41;;;;;;;;;;;;;;;;;;5003034;28;2347;-72
2022/07/06 03:58:50;;;;;;;;;;;;;;;;;;5005435;28;2028;-72
2022/07/06 04:01:15;;;;;;;;;;;;;;;;;;5000207;28;2758;-72
2022/07/06 04:03:41;;;;;;;;;;;;;;;;;;5004760;28;2384;-72
2022/07/06 04:06:06;;;;;;;;;;;;;;;;;;5003448;28;2786;-72
2022/07/06 04:08:31;;;;;;;;;;;;;;;;;;4998571;28;2171;-72
2022/07/06 04:10:56;;;;;;;;;;;;;;;;;;5000167;28;2725;-72
2022/07/06 04:13:21;;;;;;;;;;;;;;;;;;5004276;28;2339;-72
2022/07/06 04:15:46;;;;;;;;;;;;;;;;;;5001159;28;2800;-72
2022/07/06 04:18:12;;;;;;;;;;;;;;;;;;5006884;28;2011;-72
2022/07/06 04:20:37;;;;;;;;;;;;;;;;;;5004300;28;2383;-72
2022/07/06 04:23:02;;;;;;;;;;;;;;;;;;5007390;28;2567;-72
2022/07/06 04:25:28;;;;;;;;;;;;;;;;;;5003107;28;2304;-72
2022/07/06 04:27:53;;;;;;;;;;;;;;;;;;5002574;28;2123;-72
2022/07/06 04:30:18;;;;;;;;;;;;;;;;;;5001094;28;2173;-72
2022/07/06 04:32:43;;;;;;;;;;;;;;;;;;4999926;28;2137;-72
2022/07/06 04:35:08;;;;;;;;;;;;;;;;;;5001953;28;2288;-72
2022/07/06 04:37:34;;;;;;;;;;;;;;;;;;5004223;28;2037;-72
2022/07/06 04:39:59;;;;;;;;;;;;;;;;;;5005160;28;2265;-72
2022/07/06 04:42:24;;;;;;;;;;;;;;;;;;5000226;28;2226;-72
2022/07/06 04:44:51;;;;;;;;;;;;;;;;;;5005470;28;2090;-72
2022/07/06 04:47:17;;;;;;;;;;;;;;;;;;4998837;28;2842;-72
2022/07/06 04:49:42;;;;;;;;;;;;;;;;;;5001643;28;2156;-72
2022/07/06 04:52:07;;;;;;;;;;;;;;;;;;5000996;28;2922;-72
2022/07/06 04:54:33;;;;;;;;;;;;;;;;;;5001524;28;2949;-72
2022/07/06 04:56:58;;;;;;;;;;;;;;;;;;5001336;28;2294;-72
2022/07/06 04:59:23;;;;;;;;;;;;;;;;;;5005806;28;2285;-72
2022/07/06 05:01:48;;;;;;;;;;;;;;;;;;5003812;28;2196;-72
2022/07/06 05:04:13;;;;;;;;;;;;;;;;;;5007203;28;2936;-72
2022/07/06 05:06:39;;;;;;;;;;;;;;;;;;5003158;28;2904;-72
2022/07/06 05:09:05;;;;;;;;;;;;;;;;;;5002356;28;2459;-72
2022/07/06 05:11:30;;;;;;;;;;;;;;;;;;5002736;28;2813;-72
2022/07/06 05:13:55;;;;;;;;;;;;;;;;;;5002092;28;2332;-72
2022/07/06 05:16:20;;;;;;;;;;;;;;;;;;4997592;28;2040;-72
2022/07/06 05:18:46;;;;;;;;;;;;;;;;;;4999015;28;1985;-83
2022/07/06 05:21:11;;;;;;;;;;;;;;;;;;4995767;28;3111;-72
2022/07/06 05:23:36;;;;;;;;;;;;;;;;;;5005364;28;2612;-72
2022/07/06 05:26:01;;;;;;;;;;;;;;;;;;5015420;28;2763;-71
2022/07/06 05:28:27;;;;;;;;;;;;;;;;;;5009428;28;2612;-72
2022/07/06 05:30:52;;;;;;;;;;;;;;;;;;5017264;28;1569;-72
2022/07/06 05:33:17;;;;;;;;;;;;;;;;;;5014080;28;1933;-72
2022/07/06 05:35:42;;;;;;;;;;;;;;;;;;5016681;28;2508;-72
2022/07/06 05:38:08;;;;;;;;;;;;;;;;;;5015310;28;2747;-72
2022/07/06 05:40:33;;;;;;;;;;;;;;;;;;5010011;28;2228;-72
2022/07/06 05:42:58;;;;;;;;;;;;;;;;;;5016169;28;2178;-71
2022/07/06 05:45:23;;;;;;;;;;;;;;;;;;5008791;28;2194;-72
2022/07/06 05:50:33;;;;;;;;;;;;;;;;;;5007887;28;1972;-72
2022/07/06 05:53:02;;;;;;;;;;;;;;;;;;5008211;28;2825;-72
2022/07/06 05:55:28;;;;;;;;;;;;;;;;;;5009414;28;2086;-72
2022/07/06 05:57:53;;;;;;;;;;;;;;;;;;5014887;28;1875;-72
2022/07/06 06:00:19;;;;;;;;;;;;;;;;;;5009338;28;2733;-72
2022/07/06 06:02:44;;;;;;;;;;;;;;;;;;5002037;28;2199;-72
2022/07/06 06:05:10;;;;;;;;;;;;;;;;;;5003661;28;2761;-73
2022/07/06 06:07:36;;;;;;;;;;;;;;;;;;5014558;28;2846;-72
2022/07/06 06:10:06;;;;;;;;;;;;;;;;;;5007991;28;2840;-72
2022/07/06 06:12:31;;;;;;;;;;;;;;;;;;5010080;28;1585;-72
2022/07/06 06:14:56;;;;;;;;;;;;;;;;;;5010637;28;2296;-72
2022/07/06 06:17:21;;;;;;;;;;;;;;;;;;5014235;28;2578;-73
2022/07/06 06:19:47;;;;;;;;;;;;;;;;;;5009715;28;2588;-72
2022/07/06 06:22:12;;;;;;;;;;;;;;;;;;4995448;28;2923;-72
2022/07/06 06:24:38;;;;;;;;;;;;;;;;;;5008529;28;2437;-72
2022/07/06 06:27:03;;;;;;;;;;;;;;;;;;5003486;28;2543;-73
2022/07/06 06:29:28;;;;;;;;;;;;;;;;;;5002817;28;1992;-72
2022/07/06 06:31:53;;;;;;;;;;;;;;;;;;5006599;28;2653;-72
2022/07/06 06:34:18;;;;;;;;;;;;;;;;;;5001749;28;2936;-72
2022/07/06 06:36:44;;;;;;;;;;;;;;;;;;5004731;28;3146;-73
2022/07/06 06:39:09;;;;;;;;;;;;;;;;;;5010116;28;2279;-72
2022/07/06 06:41:34;;;;;;;;;;;;;;;;;;5013001;28;1730;-72
2022/07/06 06:44:02;;;;;;;;;;;;;;;;;;5014347;28;2184;-72
2022/07/06 06:46:28;;;;;;;;;;;;;;;;;;5017090;28;1779;-73
2022/07/06 06:48:53;;;;;;;;;;;;;;;;;;5012558;28;2201;-72
2022/07/06 06:51:18;;;;;;;;;;;;;;;;;;5015748;28;1604;-72
2022/07/06 06:53:43;;;;;;;;;;;;;;;;;;5017752;28;2900;-72
2022/07/06 06:56:08;;;;;;;;;;;;;;;;;;5004882;28;1883;-73
2022/07/06 06:58:34;;;;;;;;;;;;;;;;;;5009063;28;2856;-72
2022/07/06 07:00:59;;;;;;;;;;;;;;;;;;5013469;28;1942;-73
2022/07/06 07:03:24;;;;;;;;;;;;;;;;;;4991761;28;1910;-72
2022/07/06 07:05:49;;;;;;;;;;;;;;;;;;5002994;28;2861;-72
2022/07/06 07:08:15;;;;;;;;;;;;;;;;;;5013456;28;1657;-72
2022/07/06 07:10:40;;;;;;;;;;;;;;;;;;5003060;28;2389;-72
2022/07/06 07:13:05;;;;;;;;;;;;;;;;;;5007062;28;1797;-72
2022/07/06 07:15:30;;;;;;;;;;;;;;;;;;5001320;28;2701;-72
2022/07/06 07:17:55;;;;;;;;;;;;;;;;;;5001981;28;1566;-72
2022/07/06 07:20:25;;;;;;;;;;;;;;;;;;5010484;28;2385;-72
2022/07/06 07:22:50;;;;;;;;;;;;;;;;;;5009747;28;1910;-73
2022/07/06 07:25:15;;;;;;;;;;;;;;;;;;5012721;28;1906;-72
2022/07/06 07:27:40;;;;;;;;;;;;;;;;;;5013511;28;2092;-72
2022/07/06 07:30:06;;;;;;;;;;;;;;;;;;5010857;28;2327;-72
2022/07/06 07:32:31;;;;;;;;;;;;;;;;;;5013247;28;1975;-72
2022/07/06 07:34:56;;;;;;;;;;;;;;;;;;5048479;22;2591;-74
2022/07/06 07:37:21;;;;;;;;;;;;;;;;;;5044440;28;2005;-74
2022/07/06 07:39:47;;;;;;;;;;;;;;;;;;5039641;28;2570;-74
2022/07/06 07:42:12;;;;;;;;;;;;;;;;;;5045084;28;1920;-74
2022/07/06 07:44:38;;;;;;;;;;;;;;;;;;5041773;28;2022;-74
2022/07/06 07:47:03;;;;;;;;;;;;;;;;;;5040913;28;1511;-74
2022/07/06 07:49:29;;;;;;;;;;;;;;;;;;5041351;28;3005;-76
2022/07/06 07:51:54;;;;;;;;;;;;;;;;;;5046027;28;2242;-74
2022/07/06 07:54:19;;;;;;;;;;;;;;;;;;5043400;28;2334;-74
2022/07/06 07:56:44;;;;;;;;;;;;;;;;;;5046886;28;1975;-74
2022/07/06 07:59:09;;;;;;;;;;;;;;;;;;5023101;28;2211;-75
2022/07/06 08:01:35;;;;;;;;;;;;;;;;;;5043418;28;1786;-74
2022/07/06 08:04:00;;;;;;;;;;;;;;;;;;5043310;28;2922;-74
2022/07/06 08:06:26;;;;;;;;;;;;;;;;;;5046963;28;2374;-74
2022/07/06 08:08:51;;;;;;;;;;;;;;;;;;5046537;28;3066;-74
2022/07/06 08:11:16;;;;;;;;;;;;;;;;;;5047554;28;2814;-75
2022/07/06 08:13:41;;;;;;;;;;;;;;;;;;5045571;28;2006;-75
2022/07/06 08:16:06;;;;;;;;;;;;;;;;;;5048521;28;2758;-75
2022/07/06 08:18:32;;;;;;;;;;;;;;;;;;5047344;28;2754;-74
2022/07/06 08:20:57;;;;;;;;;;;;;;;;;;5037929;28;2650;-74
2022/07/06 08:23:23;;;;;;;;;;;;;;;;;;5018983;28;2510;-74
2022/07/06 08:25:48;;;;;;;;;;;;;;;;;;5041277;28;2110;-75
2022/07/06 08:28:13;;;;;;;;;;;;;;;;;;5043240;28;2682;-74
2022/07/06 08:30:38;;;;;;;;;;;;;;;;;;5043239;28;2731;-74
2022/07/06 08:33:03;;;;;;;;;;;;;;;;;;5039938;28;2796;-74
2022/07/06 08:35:29;;;;;;;;;;;;;;;;;;5037611;28;2124;-74
2022/07/06 08:37:54;;;;;;;;;;;;;;;;;;5039527;28;2677;-74
2022/07/06 08:40:19;;;;;;;;;;;;;;;;;;5046166;28;2834;-74
2022/07/06 08:42:45;;;;;;;;;;;;;;;;;;5041442;28;2875;-74
2022/07/06 08:45:11;;;;;;;;;;;;;;;;;;5041030;28;3285;-74
2022/07/06 08:47:37;;;;;;;;;;;;;;;;;;5041664;28;2565;-75
2022/07/06 08:50:02;;;;;;;;;;;;;;;;;;5040847;28;2794;-75
2022/07/06 08:52:28;;;;;;;;;;;;;;;;;;5039388;28;2665;-75
2022/07/06 08:54:53;;;;;;;;;;;;;;;;;;5038341;28;2379;-75
2022/07/06 08:57:19;;;;;;;;;;;;;;;;;;5038707;28;2131;-75
2022/07/06 08:59:44;;;;;;;;;;;;;;;;;;5043165;28;1651;-75
2022/07/06 09:02:10;;;;;;;;;;;;;;;;;;5037977;28;2516;-75
2022/07/06 09:04:36;;;;;;;;;;;;;;;;;;5040107;28;2054;-75
2022/07/06 09:07:01;;;;;;;;;;;;;;;;;;5038452;28;2478;-75
2022/07/06 09:09:28;;;;;;;;;;;;;;;;;;5023508;28;2295;-75
2022/07/06 09:11:53;;;;;;;;;;;;;;;;;;5036399;28;2825;-75
2022/07/06 09:14:19;;;;;;;;;;;;;;;;;;5043441;28;2139;-75
2022/07/06 09:16:44;;;;;;;;;;;;;;;;;;5041476;28;2784;-75
2022/07/06 09:19:11;;;;;;;;;;;;;;;;;;5041860;28;1655;-75
2022/07/06 09:21:36;;;;;;;;;;;;;;;;;;5023223;28;2421;-75
2022/07/06 09:24:05;;;;;;;;;;;;;;;;;;5043375;28;2037;-75
2022/07/06 09:26:30;;;;;;;;;;;;;;;;;;5039801;28;3120;-75
2022/07/06 09:28:56;;;;;;;;;;;;;;;;;;5040706;28;1945;-75
2022/07/06 09:31:21;;;;;;;;;;;;;;;;;;5035906;28;1985;-75
2022/07/06 09:33:57;;;;;;;;;;;;;;;;;;5042551;28;2477;-75
2022/07/06 09:36:38;;;;;;;;;;;;;;;;;;5037308;28;2554;-75
2022/07/06 09:39:14;;;;;;;;;;;;;;;;;;5041651;28;1663;-75
2022/07/06 09:41:39;;;;;;;;;;;;;;;;;;5037561;28;2468;-75
2022/07/06 09:44:04;;;;;;;;;;;;;;;;;;5043340;28;1918;-75
2022/07/06 09:46:36;;;;;;;;;;;;;;;;;;5037565;28;2892;-75
2022/07/06 09:49:02;;;;;;;;;;;;;;;;;;5047743;28;1570;-75
2022/07/06 09:51:29;;;;;;;;;;;;;;;;;;5048491;28;2539;-75
2022/07/06 09:53:57;;;;;;;;;;;;;;;;;;5044511;28;1783;-75
2022/07/06 09:56:34;;;;;;;;;;;;;;;;;;5045511;28;3028;-75
2022/07/06 09:59:00;;;;;;;;;;;;;;;;;;5045301;28;1666;-76
2022/07/06 10:01:25;;;;;;;;;;;;;;;;;;5041255;28;2650;-76
2022/07/06 10:03:51;;;;;;;;;;;;;;;;;;5023852;28;2447;-76
2022/07/06 10:06:16;;;;;;;;;;;;;;;;;;5041395;28;2795;-76
2022/07/06 10:08:41;;;;;;;;;;;;;;;;;;5040334;28;2730;-76
2022/07/06 10:11:06;;;;;;;;;;;;;;;;;;5040046;28;2936;-76
2022/07/06 10:13:33;;;;;;;;;;;;;;;;;;5032353;28;2802;-76
2022/07/06 10:15:59;;;;;;;;;;;;;;;;;;5027302;28;2565;-75
2022/07/06 10:18:25;;;;;;;;;;;;;;;;;;5045309;28;2593;-75
2022/07/06 10:20:50;;;;;;;;;;;;;;;;;;5048695;28;3013;-75
2022/07/06 10:23:16;;;;;;;;;;;;;;;;;;5041224;28;2530;-75
2022/07/06 10:25:44;;;;;;;;;;;;;;;;;;5042298;28;1663;-75
2022/07/06 10:28:14;;;;;;;;;;;;;;;;;;5040259;28;2784;-75
2022/07/06 10:30:39;;;;;;;;;;;;;;;;;;5046586;28;1888;-75
2022/07/06 10:33:05;;;;;;;;;;;;;;;;;;5049845;28;2846;-76
2022/07/06 10:35:30;;;;;;;;;;;;;;;;;;5050612;28;2562;-76
2022/07/06 10:38:05;;;;;;;;;;;;;;;;;;5047820;28;2671;-76
2022/07/06 10:43:22;;;;;;;;;;;;;;;;;;5043805;28;2355;-76
2022/07/06 10:45:48;;;;;;;;;;;;;;;;;;5052084;28;1319;-75
2022/07/06 10:48:15;;;;;;;;;;;;;;;;;;5047306;28;2840;-75
2022/07/06 10:50:50;;;;;;;;;;;;;;;;;;5042875;28;2103;-76
2022/07/06 10:53:17;;;;;;;;;;;;;;;;;;5024563;28;1555;-76
2022/07/06 10:55:44;;;;;;;;;;;;;;;;;;5044000;28;2325;-76
2022/07/06 10:58:10;;;;;;;;;;;;;;;;;;5043698;28;1586;-77
2022/07/06 11:00:51;;;;;;;;;;;;;;;;;;5041893;28;2845;-76
2022/07/06 11:03:35;;;;;;;;;;;;;;;;;;5039548;28;1905;-76
2022/07/06 11:06:09;;;;;;;;;;;;;;;;;;5043062;28;2892;-76
2022/07/06 11:09:01;;;;;;;;;;;;;;;;;;5050022;28;2140;-76
2022/07/06 11:11:26;;;;;;;;;;;;;;;;;;5041105;28;2165;-76
2022/07/06 11:13:55;;;;;;;;;;;;;;;;;;5049684;28;2129;-76
2022/07/06 11:16:26;;;;;;;;;;;;;;;;;;5044959;28;2893;-76
2022/07/06 11:19:02;;;;;;;;;;;;;;;;;;5049420;28;1893;-76
2022/07/06 11:21:35;;;;;;;;;;;;;;;;;;5045716;28;2553;-76
2022/07/06 11:24:10;;;;;;;;;;;;;;;;;;5044838;28;2813;-76
2022/07/06 11:26:36;;;;;;;;;;;;;;;;;;5027199;28;2974;-76
2022/07/06 11:29:03;;;;;;;;;;;;;;;;;;5049520;28;2161;-76
2022/07/06 11:31:28;;;;;;;;;;;;;;;;;;5035594;28;2487;-76
2022/07/06 11:33:53;;;;;;;;;;;;;;;;;;5051408;28;1754;-76
2022/07/06 11:36:20;;;;;;;;;;;;;;;;;;5042309;28;2788;-76
2022/07/06 11:38:46;;;;;;;;;;;;;;;;;;5045333;28;2724;-76
2022/07/06 11:41:13;;;;;;;;;;;;;;;;;;5047892;28;2894;-76
2022/07/06 11:43:42;;;;;;;;;;;;;;;;;;5044956;28;2324;-77
2022/07/06 11:46:16;;;;;;;;;;;;;;;;;;5044314;28;2908;-76
2022/07/06 11:48:48;;;;;;;;;;;;;;;;;;5045370;28;1663;-76
2022/07/06 11:51:14;;;;;;;;;;;;;;;;;;5048944;28;2715;-76
2022/07/06 11:53:42;;;;;;;;;;;;;;;;;;5044757;28;3233;-76
2022/07/06 11:56:08;;;;;;;;;;;;;;;;;;5045477;28;3113;-76
2022/07/06 11:58:34;;;;;;;;;;;;;;;;;;5047791;28;2660;-76
2022/07/06 12:01:09;;;;;;;;;;;;;;;;;;5046644;28;3338;-77
2022/07/06 12:03:34;;;;;;;;;;;;;;;;;;5047673;28;1903;-76
2022/07/06 12:06:20;;;;;;;;;;;;;;;;;;5037800;28;3421;-76
2022/07/06 12:08:56;;;;;;;;;;;;;;;;;;5044362;28;1638;-76
2022/07/06 12:11:23;;;;;;;;;;;;;;;;;;5046634;28;3719;-76
2022/07/06 12:13:49;;;;;;;;;;;;;;;;;;5047458;28;2083;-76
2022/07/06 12:16:17;;;;;;;;;;;;;;;;;;5041771;28;2524;-77
2022/07/06 12:18:44;;;;;;;;;;;;;;;;;;5040527;28;2784;-76
2022/07/06 12:21:10;;;;;;;;;;;;;;;;;;5020272;28;2818;-76
2022/07/06 12:23:42;;;;;;;;;;;;;;;;;;5040090;28;1997;-76
2022/07/06 12:26:08;;;;;;;;;;;;;;;;;;5026122;28;2281;-76
2022/07/06 12:28:34;;;;;;;;;;;;;;;;;;5046801;28;2704;-76
2022/07/06 12:30:59;;;;;;;;;;;;;;;;;;5042490;28;3069;-76
2022/07/06 12:33:26;;;;;;;;;;;;;;;;;;5041882;28;1855;-76
2022/07/06 12:35:51;;;;;;;;;;;;;;;;;;5038515;28;2779;-76
2022/07/06 12:38:26;;;;;;;;;;;;;;;;;;5042177;28;1626;-77
2022/07/06 12:40:52;;;;;;;;;;;;;;;;;;5027019;28;2283;-77
2022/07/06 12:43:36;;;;;;;;;;;;;;;;;;5040190;28;1884;-77
2022/07/06 12:46:20;;;;;;;;;;;;;;;;;;5042558;28;2896;-76
2022/07/06 12:48:52;;;;;;;;;;;;;;;;;;5044278;28;2788;-76
2022/07/06 12:51:17;;;;;;;;;;;;;;;;;;5040744;28;2383;-76
2022/07/06 12:53:42;;;;;;;;;;;;;;;;;;5045277;28;2791;-76
2022/07/06 12:56:08;;;;;;;;;;;;;;;;;;5042694;28;2593;-76
2022/07/06 12:58:33;;;;;;;;;;;;;;;;;;5044366;28;2348;-76
2022/07/06 13:00:59;;;;;;;;;;;;;;;;;;5044852;28;3502;-76
2022/07/06 13:03:24;;;;;;;;;;;;;;;;;;5035597;28;2855;-77
2022/07/06 13:05:49;;;;;;;;;;;;;;;;;;5040491;28;2687;-76
2022/07/06 13:08:14;;;;;;;;;;;;;;;;;;5045908;28;2934;-76
2022/07/06 13:10:42;;;;;;;;;;;;;;;;;;5040399;28;2689;-76
2022/07/06 13:13:08;;;;;;;;;;;;;;;;;;5046223;28;2098;-76
2022/07/06 13:15:33;;;;;;;;;;;;;;;;;;5045283;28;2699;-77
2022/07/06 13:17:58;;;;;;;;;;;;;;;;;;5039577;28;2116;-76
2022/07/06 13:20:24;;;;;;;;;;;;;;;;;;5041350;28;2212;-77
2022/07/06 13:22:50;;;;;;;;;;;;;;;;;;5040434;28;2612;-76
2022/07/06 13:25:15;;;;;;;;;;;;;;;;;;5038688;28;2500;-76
2022/07/06 13:27:41;;;;;;;;;;;;;;;;;;5044438;28;1825;-76
2022/07/06 13:30:07;;;;;;;;;;;;;;;;;;5044361;28;2818;-76
2022/07/06 13:32:33;;;;;;;;;;;;;;;;;;5042533;28;2222;-76
2022/07/06 13:34:58;;;;;;;;;;;;;;;;;;5045038;28;2918;-77
2022/07/06 13:37:23;;;;;;;;;;;;;;;;;;5048116;28;1912;-76
2022/07/06 13:39:49;;;;;;;;;;;;;;;;;;5044637;28;2773;-76
2022/07/06 13:42:14;;;;;;;;;;;;;;;;;;5042286;28;2371;-76
2022/07/06 13:44:39;;;;;;;;;;;;;;;;;;5039063;28;1952;-76
2022/07/06 13:47:04;;;;;;;;;;;;;;;;;;5036848;28;3129;-76
2022/07/06 13:49:29;;;;;;;;;;;;;;;;;;5040622;28;1750;-76
2022/07/06 13:52:02;;;;;;;;;;;;;;;;;;5041326;28;2765;-77
2022/07/06 13:54:27;;;;;;;;;;;;;;;;;;5043020;28;2015;-77
2022/07/06 13:56:52;;;;;;;;;;;;;;;;;;5039360;28;2793;-77
2022/07/06 13:59:17;;;;;;;;;;;;;;;;;;5041743;28;2412;-77
2022/07/06 14:01:42;;;;;;;;;;;;;;;;;;5038447;28;4189;-77
2022/07/06 14:04:07;;;;;;;;;;;;;;;;;;5041999;28;2774;-77
2022/07/06 14:06:33;;;;;;;;;;;;;;;;;;5044341;28;2776;-77
2022/07/06 14:08:58;;;;;;;;;;;;;;;;;;5045920;28;2793;-77
2022/07/06 14:11:23;;;;;;;;;;;;;;;;;;5034748;28;2753;-77
2022/07/06 14:13:48;;;;;;;;;;;;;;;;;;5044452;28;2757;-77
2022/07/06 14:16:13;;;;;;;;;;;;;;;;;;5041428;28;2727;-77
2022/07/06 14:18:39;;;;;;;;;;;;;;;;;;5039480;28;2844;-77
2022/07/06 14:21:04;;;;;;;;;;;;;;;;;;5044619;28;2650;-77
2022/07/06 14:23:29;;;;;;;;;;;;;;;;;;5034561;28;2814;-76
2022/07/06 14:25:54;;;;;;;;;;;;;;;;;;5045158;28;2413;-77
2022/07/06 14:28:20;;;;;;;;;;;;;;;;;;5047090;28;2180;-77
2022/07/06 14:30:45;;;;;;;;;;;;;;;;;;5039233;28;2572;-77
2022/07/06 14:33:11;;;;;;;;;;;;;;;;;;5027167;28;2929;-77
2022/07/06 14:35:47;;;;;;;;;;;;;;;;;;5041525;28;2236;-77
2022/07/06 14:38:12;;;;;;;;;;;;;;;;;;5044055;28;1872;-77
2022/07/06 14:40:37;;;;;;;;;;;;;;;;;;5044506;28;2749;-77
2022/07/06 14:43:03;;;;;;;;;;;;;;;;;;5047378;28;2942;-77
2022/07/06 14:45:28;;;;;;;;;;;;;;;;;;5044421;28;2810;-77
2022/07/06 14:47:54;;;;;;;;;;;;;;;;;;5047856;28;1788;-77
2022/07/06 14:50:19;;;;;;;;;;;;;;;;;;5044503;28;2945;-77
2022/07/06 14:52:44;;;;;;;;;;;;;;;;;;5047350;28;760;-77
2022/07/06 14:55:10;;;;;;;;;;;;;;;;;;5042297;28;2402;-77
2022/07/06 14:57:35;;;;;;;;;;;;;;;;;;5047525;28;1740;-77
2022/07/06 15:00:00;;;;;;;;;;;;;;;;;;5038786;28;2798;-77
2022/07/06 15:02:25;;;;;;;;;;;;;;;;;;5048802;28;1762;-77
2022/07/06 15:04:50;;;;;;;;;;;;;;;;;;5047949;28;2595;-77
2022/07/06 15:07:16;;;;;;;;;;;;;;;;;;5051827;28;1819;-77
2022/07/06 15:09:41;;;;;;;;;;;;;;;;;;5049229;28;2676;-77
2022/07/06 15:12:07;;;;;;;;;;;;;;;;;;5046841;28;3109;-77
2022/07/06 15:14:32;;;;;;;;;;;;;;;;;;5050136;28;3055;-77
2022/07/06 15:16:58;;;;;;;;;;;;;;;;;;5048936;28;2269;-77
2022/07/06 15:19:23;;;;;;;;;;;;;;;;;;5049327;28;2998;-77
2022/07/06 15:21:49;;;;;;;;;;;;;;;;;;5036805;28;2671;-77
2022/07/06 15:24:14;;;;;;;;;;;;;;;;;;5049931;28;2603;-77
2022/07/06 15:26:40;;;;;;;;;;;;;;;;;;5048047;28;2512;-77
2022/07/06 15:29:05;;;;;;;;;;;;;;;;;;5047394;28;2079;-77
2022/07/06 15:31:31;;;;;;;;;;;;;;;;;;5048002;28;2652;-77
2022/07/06 15:33:57;;;;;;;;;;;;;;;;;;5050109;28;2150;-77
2022/07/06 15:36:22;;;;;;;;;;;;;;;;;;5044495;28;2984;-77
2022/07/06 15:38:47;;;;;;;;;;;;;;;;;;5050401;28;2601;-77
2022/07/06 15:41:12;;;;;;;;;;;;;;;;;;5048046;28;2924;-77
2022/07/06 15:43:37;;;;;;;;;;;;;;;;;;5050309;28;2788;-77
2022/07/06 15:46:03;;;;;;;;;;;;;;;;;;5047901;28;2799;-77
2022/07/06 15:48:29;;;;;;;;;;;;;;;;;;5049862;28;2815;-77
2022/07/06 15:50:55;;;;;;;;;;;;;;;;;;5044015;28;2750;-77
2022/07/06 15:53:20;;;;;;;;;;;;;;;;;;5049276;28;3133;-77
2022/07/06 15:55:45;;;;;;;;;;;;;;;;;;5041573;28;2682;-77
2022/07/06 15:58:11;;;;;;;;;;;;;;;;;;5041706;28;2120;-77
2022/07/06 16:00:36;;;;;;;;;;;;;;;;;;5043469;28;2771;-77
2022/07/06 16:03:02;;;;;;;;;;;;;;;;;;5047840;28;1705;-78
2022/07/06 16:05:27;;;;;;;;;;;;;;;;;;5026713;28;2183;-77
2022/07/06 16:07:52;;;;;;;;;;;;;;;;;;5043926;28;1850;-77
2022/07/06 16:10:18;;;;;;;;;;;;;;;;;;5048138;28;2930;-77
2022/07/06 16:12:43;;;;;;;;;;;;;;;;;;5049601;28;2274;-77
2022/07/06 16:15:08;;;;;;;;;;;;;;;;;;5049537;28;2983;-77
2022/07/06 16:17:33;;;;;;;;;;;;;;;;;;5041059;28;2757;-77
2022/07/06 16:19:59;;;;;;;;;;;;;;;;;;5045661;28;3304;-77
2022/07/06 16:22:25;;;;;;;;;;;;;;;;;;5050013;28;1841;-77
2022/07/06 16:24:50;;;;;;;;;;;;;;;;;;5044243;28;2534;-77
2022/07/06 16:27:15;;;;;;;;;;;;;;;;;;5047721;28;1815;-77
2022/07/06 16:29:40;;;;;;;;;;;;;;;;;;5047779;28;2545;-77
2022/07/06 16:32:06;;;;;;;;;;;;;;;;;;5046316;28;2428;-77
2022/07/06 16:34:31;;;;;;;;;;;;;;;;;;5049663;28;2564;-77
2022/07/06 16:36:56;;;;;;;;;;;;;;;;;;5040556;28;2277;-77
2022/07/06 16:39:21;;;;;;;;;;;;;;;;;;5041518;28;1671;-77
2022/07/06 16:41:48;;;;;;;;;;;;;;;;;;5038027;28;2230;-76
2022/07/06 16:44:13;;;;;;;;;;;;;;;;;;5040536;28;1937;-77
2022/07/06 16:46:39;;;;;;;;;;;;;;;;;;5040502;28;3061;-77
2022/07/06 16:49:04;;;;;;;;;;;;;;;;;;5040571;28;2176;-77
2022/07/06 16:51:29;;;;;;;;;;;;;;;;;;5042311;28;2498;-77
2022/07/06 16:53:54;;;;;;;;;;;;;;;;;;5043097;28;2900;-76
2022/07/06 16:56:19;;;;;;;;;;;;;;;;;;5047343;28;2577;-77
2022/07/06 16:58:45;;;;;;;;;;;;;;;;;;5036894;28;2943;-77
2022/07/06 17:01:10;;;;;;;;;;;;;;;;;;5044506;28;2793;-77
2022/07/06 17:03:35;;;;;;;;;;;;;;;;;;5043688;28;2650;-77
2022/07/06 17:06:00;;;;;;;;;;;;;;;;;;5042176;28;3489;-77